Time;durP1;ratioP1;P1;durP2;ratioP2;P2;SDS_P1;SDS_P2;PMS_P1;PMS_P2;Temp;Humidity;BMP_temperature;BMP_pressure;BME280_temperature;BME280_humidity;BME280_pressure;Samples;Min_cycle;Max_cycle;Signal;HPM_P1;HPM_P2
2022/10/12 00:00:36;;;;;;;3.63;2.72;;;15.00;99.90;;;;;;5002768;28;20510;-80
2022/10/12 00:03:01;;;;;;;2.97;2.65;;;15.00;99.90;;;;;;5023460;28;20034;-80
2022/10/12 00:05:27;;;;;;;2.95;2.60;;;15.00;99.90;;;;;;5012974;28;20029;-80
2022/10/12 00:07:53;;;;;;;3.25;2.80;;;15.00;99.90;;;;;;5013247;28;20084;-80
2022/10/12 00:10:18;;;;;;;3.25;2.55;;;14.90;99.90;;;;;;5013122;28;20121;-80
2022/10/12 00:12:44;;;;;;;2.65;2.40;;;15.00;99.90;;;;;;5013113;28;20022;-80
2022/10/12 00:15:12;;;;;;;3.33;2.70;;;14.90;99.90;;;;;;5012977;28;20518;-80
2022/10/12 00:17:38;;;;;;;2.35;2.15;;;15.00;99.90;;;;;;5013120;28;20036;-80
2022/10/12 00:20:05;;;;;;;2.42;2.20;;;14.90;99.90;;;;;;5013367;28;20018;-80
2022/10/12 00:22:30;;;;;;;2.92;2.47;;;15.00;99.90;;;;;;5012482;28;20062;-81
2022/10/12 00:24:56;;;;;;;2.53;2.33;;;15.00;99.90;;;;;;5012772;28;20416;-80
2022/10/12 00:27:22;;;;;;;2.25;2.05;;;15.00;99.90;;;;;;5012694;28;20026;-80
2022/10/12 00:29:47;;;;;;;3.63;2.55;;;14.90;99.90;;;;;;5012539;28;20069;-80
2022/10/12 00:32:14;;;;;;;3.15;2.83;;;15.00;99.90;;;;;;5012213;28;20511;-80
2022/10/12 00:34:40;;;;;;;2.92;2.40;;;14.90;99.90;;;;;;5012570;28;20019;-80
2022/10/12 00:37:05;;;;;;;3.08;2.53;;;14.90;99.90;;;;;;5011246;28;20558;-80
2022/10/12 00:39:31;;;;;;;4.22;2.45;;;14.70;99.90;;;;;;5012331;28;20030;-79
2022/10/12 00:41:57;;;;;;;4.53;2.30;;;14.70;99.90;;;;;;5012533;28;20507;-80
2022/10/12 00:44:42;;;;;;;4.07;2.10;;;14.60;99.90;;;;;;5011308;28;20034;-80
2022/10/12 00:47:23;;;;;;;2.47;2.28;;;14.80;99.90;;;;;;5008671;28;20025;-80
2022/10/12 00:49:55;;;;;;;4.03;2.70;;;14.80;99.90;;;;;;5012980;28;20097;-80
2022/10/12 00:52:24;;;;;;;3.53;2.55;;;14.90;99.90;;;;;;5010590;28;20310;-80
2022/10/12 00:54:52;;;;;;;2.70;2.50;;;14.70;99.90;;;;;;5012255;28;20026;-80
2022/10/12 00:57:20;;;;;;;2.80;2.53;;;14.70;99.90;;;;;;5010734;28;20030;-80
2022/10/12 00:59:50;;;;;;;2.85;2.53;;;14.60;99.90;;;;;;5019647;28;20022;-79
2022/10/12 01:02:17;;;;;;;2.75;2.55;;;14.50;99.90;;;;;;5002200;28;20030;-80
2022/10/12 01:04:43;;;;;;;3.00;2.40;;;14.60;99.90;;;;;;5011913;28;20017;-80
2022/10/12 01:07:09;;;;;;;2.72;2.40;;;14.60;99.90;;;;;;5011667;28;20105;-80
2022/10/12 01:09:35;;;;;;;3.17;2.47;;;14.70;99.90;;;;;;5011508;28;20104;-80
2022/10/12 01:12:04;;;;;;;4.00;2.25;;;14.70;99.90;;;;;;5011525;28;20033;-80
2022/10/12 01:14:29;;;;;;;2.10;1.90;;;14.70;99.90;;;;;;5012001;28;20017;-80
2022/10/12 01:17:07;;;;;;;2.30;2.10;;;14.70;99.90;;;;;;5011515;28;20029;-80
2022/10/12 01:19:55;;;;;;;2.92;2.33;;;14.70;99.90;;;;;;5012072;28;20026;-80
2022/10/12 01:22:21;;;;;;;4.35;2.08;;;14.80;99.90;;;;;;5011754;28;20049;-80
2022/10/12 01:24:51;;;;;;;2.38;2.17;;;14.80;99.90;;;;;;5011635;28;20036;-80
2022/10/12 01:27:47;;;;;;;2.35;2.15;;;14.80;99.90;;;;;;5026502;28;20026;-80
2022/10/12 01:30:14;;;;;;;2.75;2.30;;;14.70;99.90;;;;;;5011769;28;20067;-80
2022/10/12 01:32:54;;;;;;;2.28;2.08;;;14.70;99.90;;;;;;5026396;28;20033;-80
2022/10/12 01:35:28;;;;;;;2.00;1.90;;;14.70;99.90;;;;;;5011270;28;20043;-80
2022/10/12 01:38:03;;;;;;;2.40;2.20;;;14.70;99.90;;;;;;5011507;28;20030;-80
2022/10/12 01:40:36;;;;;;;3.15;2.20;;;14.80;99.90;;;;;;5026624;28;20523;-80
2022/10/12 01:43:02;;;;;;;2.75;2.33;;;14.80;99.90;;;;;;5011030;28;20041;-80
2022/10/12 01:45:28;;;;;;;2.28;2.08;;;14.70;99.90;;;;;;5010916;28;20117;-80
2022/10/12 01:47:54;;;;;;;2.38;2.17;;;14.60;99.90;;;;;;5011254;28;20109;-80
2022/10/12 01:50:23;;;;;;;3.25;2.08;;;14.70;99.90;;;;;;5011152;28;20116;-80
2022/10/12 01:53:04;;;;;;;2.47;2.28;;;14.60;99.90;;;;;;5010042;28;20068;-80
2022/10/12 01:55:33;;;;;;;2.40;2.10;;;14.70;99.90;;;;;;5009150;28;20491;-80
2022/10/12 01:58:31;;;;;;;2.92;2.25;;;14.70;99.90;;;;;;5010976;28;20269;-80
2022/10/12 02:01:14;;;;;;;2.22;2.03;;;14.70;99.90;;;;;;5020207;28;20044;-80
2022/10/12 02:04:06;;;;;;;2.80;2.08;;;14.70;99.90;;;;;;5027821;28;20037;-80
2022/10/12 02:06:42;;;;;;;2.67;2.45;;;14.80;99.90;;;;;;4931376;29;20035;-80
2022/10/12 02:09:23;;;;;;;2.88;2.45;;;14.70;99.90;;;;;;4931235;29;20043;-80
2022/10/12 02:11:54;;;;;;;2.50;2.13;;;14.60;99.90;;;;;;4930769;29;20044;-80
2022/10/12 02:14:50;;;;;;;3.20;2.42;;;14.60;99.90;;;;;;4930999;29;20086;-80
2022/10/12 02:17:19;;;;;;;2.83;2.42;;;14.60;99.90;;;;;;4917142;29;20031;-80
2022/10/12 02:19:51;;;;;;;2.70;2.25;;;14.70;99.90;;;;;;4931187;29;20051;-80
2022/10/12 02:22:17;;;;;;;2.33;2.10;;;14.70;99.90;;;;;;4931098;29;20139;-80
2022/10/12 02:24:47;;;;;;;3.15;2.17;;;14.70;99.90;;;;;;4930660;29;20498;-80
2022/10/12 02:27:15;;;;;;;2.70;2.28;;;14.70;99.90;;;;;;4931006;29;20539;-80
2022/10/12 02:29:43;;;;;;;3.47;2.47;;;14.70;99.90;;;;;;4930774;29;20043;-80
2022/10/12 02:32:26;;;;;;;2.28;2.08;;;14.60;99.90;;;;;;4930491;29;20044;-80
2022/10/12 02:34:57;;;;;;;3.58;2.10;;;14.50;99.90;;;;;;4930851;29;20036;-80
2022/10/12 02:37:40;;;;;;;3.10;2.67;;;14.60;99.90;;;;;;4917522;29;20150;-80
2022/10/12 02:40:22;;;;;;;2.67;2.47;;;14.70;99.90;;;;;;4930657;29;20028;-80
2022/10/12 02:42:49;;;;;;;;;;;14.70;99.90;;;;;;4914566;28;20065;-80
2022/10/12 02:45:17;;;;;;;3.15;1.85;;;14.70;99.90;;;;;;5010132;28;19988;-80
2022/10/12 02:47:46;;;;;;;2.60;2.38;;;14.70;99.90;;;;;;5010454;28;20030;-80
2022/10/12 02:50:13;;;;;;;4.22;2.58;;;14.60;99.90;;;;;;5010435;28;20026;-80
2022/10/12 02:52:39;;;;;;;2.40;2.20;;;14.70;99.90;;;;;;5008923;28;20049;-80
2022/10/12 02:55:05;;;;;;;2.88;2.25;;;14.70;99.90;;;;;;5010368;28;20050;-80
2022/10/12 02:57:31;;;;;;;2.35;2.17;;;14.70;99.90;;;;;;5024956;28;20041;-80
2022/10/12 02:59:57;;;;;;;2.40;2.20;;;14.80;99.90;;;;;;5002445;28;20026;-80
2022/10/12 03:02:22;;;;;;;2.83;2.47;;;14.70;99.90;;;;;;5000414;28;20029;-80
2022/10/12 03:04:48;;;;;;;3.00;2.08;;;14.70;99.90;;;;;;5010590;28;20026;-80
2022/10/12 03:07:14;;;;;;;3.72;2.33;;;14.70;99.90;;;;;;5011505;28;20010;-80
2022/10/12 03:09:39;;;;;;;2.03;1.92;;;14.60;99.90;;;;;;5014051;28;20507;-80
2022/10/12 03:12:05;;;;;;;2.67;2.47;;;14.60;99.90;;;;;;5014073;28;20022;-81
2022/10/12 03:14:32;;;;;;;5.50;3.90;;;14.70;99.90;;;;;;5029273;28;20113;-80
2022/10/12 03:16:58;;;;;;;3.75;2.63;;;14.30;99.90;;;;;;5013918;28;20140;-80
2022/10/12 03:19:24;;;;;;;2.60;2.40;;;14.30;99.90;;;;;;5013929;28;20539;-80
2022/10/12 03:21:49;;;;;;;4.78;3.40;;;14.40;99.90;;;;;;5013693;28;20527;-80
2022/10/12 03:24:15;;;;;;;3.88;3.50;;;14.50;99.90;;;;;;5012389;28;20491;-80
2022/10/12 03:26:40;;;;;;;4.53;3.67;;;14.50;99.90;;;;;;5013651;28;20499;-80
2022/10/12 03:29:08;;;;;;;5.47;3.13;;;14.30;99.90;;;;;;5014038;28;20125;-80
2022/10/12 03:31:33;;;;;;;4.57;3.50;;;14.50;99.90;;;;;;5012598;28;20045;-81
2022/10/12 03:33:59;;;;;;;4.10;3.25;;;14.50;99.90;;;;;;5013930;28;20503;-81
2022/10/12 03:36:25;;;;;;;3.35;3.05;;;14.60;99.90;;;;;;5013648;28;20550;-81
2022/10/12 03:38:50;;;;;;;3.67;3.28;;;14.60;99.90;;;;;;5013793;28;20056;-80
2022/10/12 03:41:16;;;;;;;4.35;3.38;;;14.60;99.90;;;;;;5013659;28;20117;-81
2022/10/12 03:43:42;;;;;;;4.18;3.22;;;14.60;99.90;;;;;;5013537;28;20034;-81
2022/10/12 03:46:07;;;;;;;3.22;2.92;;;14.60;99.90;;;;;;5013295;28;20554;-81
2022/10/12 03:48:33;;;;;;;3.03;2.60;;;14.60;99.90;;;;;;5013941;28;20566;-81
2022/10/12 03:50:59;;;;;;;4.03;2.95;;;14.60;99.90;;;;;;5013312;28;20026;-80
2022/10/12 03:53:25;;;;;;;4.85;3.15;;;14.60;99.90;;;;;;5012095;28;20038;-80
2022/10/12 03:55:50;;;;;;;5.38;3.15;;;14.60;99.90;;;;;;5013638;28;20030;-80
2022/10/12 03:58:16;;;;;;;4.20;2.92;;;14.50;99.90;;;;;;5013793;28;20075;-80
2022/10/12 04:00:42;;;;;;;2.80;2.60;;;14.60;99.90;;;;;;5017286;28;20033;-80
2022/10/12 04:03:07;;;;;;;3.47;2.72;;;14.60;99.90;;;;;;5008620;28;20037;-80
2022/10/12 04:05:33;;;;;;;2.80;2.50;;;14.60;99.90;;;;;;5013012;28;20057;-80
2022/10/12 04:07:59;;;;;;;2.90;2.60;;;14.50;99.90;;;;;;5013014;28;20033;-80
2022/10/12 04:10:24;;;;;;;2.70;2.50;;;14.60;99.90;;;;;;5013190;28;20029;-80
2022/10/12 04:12:50;;;;;;;3.05;2.75;;;14.60;99.90;;;;;;5013018;28;20107;-80
2022/10/12 04:15:19;;;;;;;3.28;2.97;;;14.60;99.90;;;;;;5013383;28;20471;-80
2022/10/12 04:17:45;;;;;;;3.00;2.75;;;14.60;99.90;;;;;;5012587;28;20045;-80
2022/10/12 04:20:11;;;;;;;3.90;3.03;;;14.60;99.90;;;;;;5012256;28;20435;-80
2022/10/12 04:22:37;;;;;;;2.90;2.70;;;14.60;99.90;;;;;;5012470;28;20063;-80
2022/10/12 04:25:03;;;;;;;2.83;2.63;;;14.60;99.90;;;;;;5012952;28;20069;-80
2022/10/12 04:27:29;;;;;;;3.45;2.75;;;14.50;99.90;;;;;;5013138;28;20069;-80
2022/10/12 04:29:54;;;;;;;3.47;2.78;;;14.50;99.90;;;;;;5028300;28;20057;-80
2022/10/12 04:32:20;;;;;;;3.10;2.80;;;14.50;99.90;;;;;;5012726;28;20025;-80
2022/10/12 04:34:46;;;;;;;3.10;2.50;;;14.60;99.90;;;;;;5012576;28;20503;-80
2022/10/12 04:37:11;;;;;;;2.58;2.38;;;14.60;99.90;;;;;;5012155;28;20467;-80
2022/10/12 04:39:37;;;;;;;3.00;2.70;;;14.60;99.90;;;;;;5012926;28;20492;-80
2022/10/12 04:42:03;;;;;;;3.33;2.92;;;14.50;99.90;;;;;;5012358;28;20022;-80
2022/10/12 04:44:29;;;;;;;3.65;2.92;;;14.30;99.90;;;;;;5012624;28;20026;-80
2022/10/12 04:46:54;;;;;;;3.60;2.97;;;14.30;99.90;;;;;;5012534;28;20065;-80
2022/10/12 04:49:20;;;;;;;4.30;3.00;;;14.30;99.90;;;;;;5012578;28;20022;-80
2022/10/12 04:51:45;;;;;;;2.90;2.70;;;14.40;99.90;;;;;;5011286;28;20022;-81
2022/10/12 04:54:11;;;;;;;3.10;2.80;;;14.40;99.90;;;;;;5012470;28;20035;-80
2022/10/12 04:56:37;;;;;;;3.63;3.00;;;14.30;99.90;;;;;;5027208;28;20087;-80
2022/10/12 04:59:03;;;;;;;3.25;2.83;;;14.40;99.90;;;;;;5010430;28;20117;-80
2022/10/12 05:01:28;;;;;;;3.30;3.00;;;14.30;99.90;;;;;;4997683;28;20046;-80
2022/10/12 05:03:54;;;;;;;3.65;3.35;;;14.20;99.90;;;;;;5012575;28;20022;-80
2022/10/12 05:06:20;;;;;;;4.65;2.92;;;14.20;99.90;;;;;;5011726;28;20034;-80
2022/10/12 05:08:45;;;;;;;3.22;2.92;;;14.20;99.90;;;;;;5011139;28;20129;-81
2022/10/12 05:11:11;;;;;;;3.55;3.08;;;14.20;99.90;;;;;;5011940;28;20018;-80
2022/10/12 05:13:37;;;;;;;2.95;2.65;;;14.20;99.90;;;;;;5010965;28;20120;-80
2022/10/12 05:16:03;;;;;;;3.28;2.88;;;14.20;99.90;;;;;;5010268;28;20014;-80
2022/10/12 05:18:28;;;;;;;3.25;2.95;;;14.20;99.90;;;;;;5027270;28;20444;-81
2022/10/12 05:20:54;;;;;;;4.22;3.08;;;14.20;99.90;;;;;;5011614;28;20553;-81
2022/10/12 05:23:20;;;;;;;2.95;2.67;;;14.10;99.90;;;;;;5011900;28;20412;-80
2022/10/12 05:25:45;;;;;;;4.03;2.67;;;14.20;99.90;;;;;;5012044;28;20152;-80
2022/10/12 05:28:11;;;;;;;4.20;3.20;;;14.20;99.90;;;;;;5011358;28;20499;-81
2022/10/12 05:30:38;;;;;;;3.70;2.90;;;14.20;99.90;;;;;;5011909;28;20096;-80
2022/10/12 05:33:03;;;;;;;4.70;3.30;;;14.20;99.90;;;;;;5011747;28;20026;-80
2022/10/12 05:35:29;;;;;;;3.05;2.75;;;14.10;99.90;;;;;;5011496;28;20017;-80
2022/10/12 05:37:54;;;;;;;3.05;2.75;;;14.10;99.90;;;;;;5011453;28;20030;-80
2022/10/12 05:40:20;;;;;;;3.67;3.20;;;14.10;99.90;;;;;;5011252;28;20030;-80
2022/10/12 05:42:46;;;;;;;3.08;2.78;;;14.10;99.90;;;;;;5011930;28;20481;-80
2022/10/12 05:45:12;;;;;;;2.80;2.60;;;14.10;99.90;;;;;;5011420;28;20022;-80
2022/10/12 05:47:38;;;;;;;3.65;3.20;;;14.00;99.90;;;;;;5026340;28;20044;-80
2022/10/12 05:50:05;;;;;;;3.25;2.90;;;14.10;99.90;;;;;;5011658;28;20034;-80
2022/10/12 05:52:31;;;;;;;3.00;2.78;;;14.10;99.90;;;;;;5009268;28;20049;-80
2022/10/12 05:54:57;;;;;;;3.85;2.70;;;14.10;99.90;;;;;;5011259;28;20033;-80
2022/10/12 05:57:23;;;;;;;4.65;3.20;;;14.00;99.90;;;;;;5011142;28;20026;-80
2022/10/12 05:59:48;;;;;;;3.03;2.83;;;14.00;99.90;;;;;;5003962;28;20027;-80
2022/10/12 06:02:16;;;;;;;3.63;2.95;;;14.10;99.90;;;;;;5001241;28;20087;-80
2022/10/12 06:04:42;;;;;;;4.57;3.10;;;14.00;99.90;;;;;;5011692;28;20034;-81
2022/10/12 06:07:07;;;;;;;3.13;2.78;;;13.90;99.90;;;;;;5011433;28;20426;-80
2022/10/12 06:09:34;;;;;;;3.30;3.00;;;13.90;99.90;;;;;;5011021;28;20496;-81
2022/10/12 06:12:00;;;;;;;4.28;2.97;;;13.90;99.90;;;;;;5026208;28;20062;-81
2022/10/12 06:14:25;;;;;;;5.10;3.38;;;14.00;99.90;;;;;;5011401;28;20068;-80
2022/10/12 06:16:51;;;;;;;3.30;3.00;;;14.00;99.90;;;;;;5009885;28;20573;-80
2022/10/12 06:19:17;;;;;;;5.15;3.25;;;13.90;99.90;;;;;;5016912;28;20038;-81
2022/10/12 06:21:42;;;;;;;5.15;3.85;;;13.90;99.90;;;;;;5011089;28;20045;-81
2022/10/12 06:24:08;;;;;;;4.13;3.20;;;13.90;99.90;;;;;;5010567;28;20034;-81
2022/10/12 06:26:34;;;;;;;5.50;3.47;;;14.00;99.90;;;;;;5010922;28;20064;-81
2022/10/12 06:29:00;;;;;;;4.63;3.78;;;14.10;99.90;;;;;;5010673;28;20038;-80
2022/10/12 06:31:27;;;;;;;4.07;3.50;;;14.10;99.90;;;;;;5010531;28;20454;-80
2022/10/12 06:33:53;;;;;;;4.25;3.28;;;14.20;99.90;;;;;;5010610;28;20507;-81
2022/10/12 06:36:19;;;;;;;5.00;3.53;;;14.10;99.90;;;;;;5010385;28;20037;-81
2022/10/12 06:38:45;;;;;;;4.40;3.78;;;14.20;99.90;;;;;;5009592;28;20030;-81
2022/10/12 06:41:11;;;;;;;4.65;3.92;;;14.20;99.90;;;;;;5010373;28;20033;-81
2022/10/12 06:43:37;;;;;;;7.05;4.30;;;14.30;99.90;;;;;;5010812;28;20034;-80
2022/10/12 06:46:03;;;;;;;4.15;3.75;;;14.30;99.90;;;;;;5014822;28;20576;-80
2022/10/12 06:48:29;;;;;;;5.57;3.65;;;14.30;99.90;;;;;;5008174;28;20101;-80
2022/10/12 06:50:55;;;;;;;5.15;3.70;;;14.40;99.90;;;;;;5007906;28;20097;-81
2022/10/12 06:53:21;;;;;;;4.63;3.97;;;14.50;99.90;;;;;;5009598;28;20030;-80
2022/10/12 06:55:47;;;;;;;5.85;4.40;;;14.50;99.90;;;;;;5008571;28;20044;-80
2022/10/12 06:58:12;;;;;;;5.25;4.00;;;14.50;99.90;;;;;;5019227;28;20511;-79
2022/10/12 07:00:38;;;;;;;4.75;3.85;;;14.60;99.90;;;;;;5015261;28;20404;-80
2022/10/12 07:03:04;;;;;;;5.72;3.65;;;14.60;99.90;;;;;;5009912;28;20484;-80
2022/10/12 07:05:29;;;;;;;7.00;4.38;;;14.70;99.90;;;;;;5009002;28;20512;-80
2022/10/12 07:07:55;;;;;;;7.10;3.70;;;14.70;99.90;;;;;;5008717;28;20030;-81
2022/10/12 07:10:22;;;;;;;6.18;4.00;;;14.80;99.90;;;;;;5009619;28;20030;-80
2022/10/12 07:12:48;;;;;;;5.88;4.43;;;14.90;99.90;;;;;;5025367;28;20026;-80
2022/10/12 07:15:13;;;;;;;6.00;4.28;;;14.80;99.90;;;;;;5012618;28;20048;-81
2022/10/12 07:17:39;;;;;;;5.57;4.75;;;14.80;99.90;;;;;;5010133;28;20065;-80
2022/10/12 07:20:06;;;;;;;7.32;4.80;;;14.80;99.90;;;;;;5009884;28;20022;-81
2022/10/12 07:22:32;;;;;;;5.57;5.07;;;14.90;99.90;;;;;;5010635;28;20050;-81
2022/10/12 07:24:57;;;;;;;7.28;4.63;;;15.00;99.90;;;;;;5009283;28;20574;-82
2022/10/12 07:27:23;;;;;;;6.00;4.85;;;15.10;99.90;;;;;;5024572;28;20030;-81
2022/10/12 07:29:49;;;;;;;8.23;5.18;;;15.10;99.90;;;;;;5005651;28;20035;-81
2022/10/12 07:32:15;;;;;;;5.55;4.65;;;15.10;99.90;;;;;;5008536;28;20545;-80
2022/10/12 07:34:43;;;;;;;5.40;4.70;;;15.10;99.90;;;;;;5009055;28;20022;-80
2022/10/12 07:37:09;;;;;;;6.30;4.93;;;15.10;99.90;;;;;;5009322;28;20112;-80
2022/10/12 07:39:35;;;;;;;6.88;4.68;;;15.10;99.90;;;;;;5010013;28;20026;-80
2022/10/12 07:42:00;;;;;;;5.20;4.00;;;15.10;99.90;;;;;;5020913;28;20148;-80
2022/10/12 07:44:27;;;;;;;4.95;4.45;;;15.30;99.90;;;;;;5009203;28;20532;-79
2022/10/12 07:46:53;;;;;;;4.25;3.90;;;15.30;99.90;;;;;;5009065;28;20026;-80
2022/10/12 07:49:19;;;;;;;6.15;5.00;;;15.30;99.90;;;;;;5008850;28;20037;-80
2022/10/12 07:51:46;;;;;;;4.75;4.32;;;15.30;99.90;;;;;;5007289;28;20030;-80
2022/10/12 07:54:12;;;;;;;4.97;4.47;;;15.30;99.90;;;;;;5010808;28;20107;-80
2022/10/12 07:56:37;;;;;;;6.40;5.10;;;15.40;99.90;;;;;;5027471;28;20105;-81
2022/10/12 07:59:03;;;;;;;5.57;4.95;;;15.40;99.90;;;;;;5012814;28;20034;-80
2022/10/12 08:01:31;;;;;;;5.45;4.78;;;15.40;99.90;;;;;;5003175;28;20121;-80
2022/10/12 08:03:57;;;;;;;5.28;4.43;;;15.50;99.90;;;;;;5012750;28;20038;-80
2022/10/12 08:06:26;;;;;;;6.40;4.38;;;15.50;99.90;;;;;;5027730;28;20038;-80
2022/10/12 08:08:52;;;;;;;7.43;5.72;;;15.50;99.90;;;;;;5011920;28;20029;-81
2022/10/12 08:11:20;;;;;;;7.10;5.25;;;15.50;99.90;;;;;;5011984;28;20483;-80
2022/10/12 08:13:46;;;;;;;5.07;4.57;;;15.60;99.90;;;;;;5012864;28;20026;-80
2022/10/12 08:16:15;;;;;;;5.57;4.63;;;15.80;99.90;;;;;;5012313;28;20029;-80
2022/10/12 08:18:41;;;;;;;4.88;4.30;;;15.80;99.90;;;;;;5012301;28;20049;-79
2022/10/12 08:21:08;;;;;;;4.90;4.18;;;15.70;99.90;;;;;;5012322;28;20030;-80
2022/10/12 08:23:35;;;;;;;5.75;4.60;;;15.80;99.90;;;;;;5012478;28;20025;-80
2022/10/12 08:26:01;;;;;;;6.22;4.25;;;15.90;99.90;;;;;;5012100;28;20125;-80
2022/10/12 08:28:29;;;;;;;5.97;4.78;;;16.00;99.90;;;;;;5012086;28;20026;-80
2022/10/12 08:30:55;;;;;;;5.53;4.65;;;16.00;99.90;;;;;;5011990;28;20084;-80
2022/10/12 08:33:20;;;;;;;6.43;4.85;;;16.10;99.90;;;;;;5012357;28;20435;-80
2022/10/12 08:35:46;;;;;;;4.57;4.25;;;16.10;99.90;;;;;;5026604;28;20565;-80
2022/10/12 08:38:13;;;;;;;4.68;4.18;;;16.20;99.90;;;;;;5012101;28;20029;-80
2022/10/12 08:40:57;;;;;;;4.82;4.25;;;16.50;99.90;;;;;;5011611;28;20030;-80
2022/10/12 08:43:32;;;;;;;7.28;5.20;;;16.60;99.90;;;;;;5011950;28;20488;-80
2022/10/12 08:45:59;;;;;;;5.70;4.47;;;16.90;99.90;;;;;;5008495;28;20030;-80
2022/10/12 08:48:30;;;;;;;6.40;5.10;;;17.00;99.90;;;;;;5012477;28;20402;-80
2022/10/12 08:51:04;;;;;;;6.15;4.95;;;17.20;99.90;;;;;;5027205;28;20033;-80
2022/10/12 08:53:59;;;;;;;9.10;6.03;;;17.10;99.90;;;;;;5010434;28;20041;-79
2022/10/12 08:56:25;;;;;;;7.95;5.35;;;17.20;99.90;;;;;;5011623;28;20022;-80
2022/10/12 08:58:51;;;;;;;6.70;5.00;;;17.10;99.90;;;;;;5017508;28;20598;-80
2022/10/12 09:01:27;;;;;;;8.80;5.20;;;17.30;99.90;;;;;;5011743;28;20052;-80
2022/10/12 09:04:01;;;;;;;5.63;5.10;;;17.40;99.90;;;;;;5002565;28;20029;-80
2022/10/12 09:06:33;;;;;;;7.30;4.65;;;17.30;99.90;;;;;;5007020;28;20061;-80
2022/10/12 09:09:08;;;;;;;5.93;4.45;;;17.40;99.90;;;;;;5010917;28;20032;-80
2022/10/12 09:12:04;;;;;;;6.35;4.20;;;17.40;99.90;;;;;;5009543;28;20029;-79
2022/10/12 09:14:32;;;;;;;5.65;3.97;;;17.60;99.90;;;;;;5010441;28;20025;-80
2022/10/12 09:17:00;;;;;;;3.70;3.40;;;17.90;99.90;;;;;;5009776;28;20068;-80
2022/10/12 09:19:41;;;;;;;7.72;5.25;;;17.90;99.90;;;;;;5007118;28;20022;-80
2022/10/12 09:22:18;;;;;;;5.63;4.50;;;17.90;99.90;;;;;;5001630;28;20049;-80
2022/10/12 09:24:46;;;;;;;6.30;3.90;;;18.40;99.90;;;;;;5010351;28;20092;-80
2022/10/12 09:27:15;;;;;;;6.53;4.07;;;18.50;99.90;;;;;;5011882;28;20084;-80
2022/10/12 09:29:43;;;;;;;4.40;4.00;;;18.60;99.90;;;;;;5013293;28;20030;-80
2022/10/12 09:32:32;;;;;;;5.88;3.90;;;19.00;99.90;;;;;;5010154;28;20029;-80
2022/10/12 09:34:58;;;;;;;4.97;3.83;;;19.30;99.90;;;;;;5009837;28;20104;-80
2022/10/12 09:37:28;;;;;;;4.97;4.10;;;19.40;99.90;;;;;;5010733;28;20149;-80
2022/10/12 09:39:54;;;;;;;4.82;3.70;;;19.30;99.90;;;;;;5010759;28;20108;-80
2022/10/12 09:42:20;;;;;;;6.15;4.38;;;19.50;99.90;;;;;;5010636;28;20034;-80
2022/10/12 09:44:48;;;;;;;6.63;4.25;;;19.20;99.90;;;;;;5010492;28;20034;-80
2022/10/12 09:47:30;;;;;;;8.48;4.40;;;19.30;99.90;;;;;;5010906;28;20032;-80
2022/10/12 09:50:07;;;;;;;6.15;4.07;;;19.10;99.90;;;;;;5010546;28;20036;-80
2022/10/12 09:52:35;;;;;;;5.53;4.00;;;19.20;99.90;;;;;;5010885;28;20225;-81
2022/10/12 09:55:13;;;;;;;6.53;4.10;;;19.20;99.90;;;;;;5009283;28;20315;-79
2022/10/12 09:57:41;;;;;;;6.22;3.67;;;19.60;99.90;;;;;;5010127;28;20101;-79
2022/10/12 10:00:27;;;;;;;6.07;3.50;;;19.90;99.90;;;;;;5009935;28;20022;-80
2022/10/12 10:02:54;;;;;;;4.10;3.53;;;19.90;99.90;;;;;;5003706;28;20029;-78
2022/10/12 10:05:37;;;;;;;4.53;3.80;;;19.90;99.90;;;;;;5009032;28;20026;-78
2022/10/12 10:08:20;;;;;;;4.60;3.42;;;19.90;99.90;;;;;;5010313;28;20033;-78
2022/10/12 10:10:58;;;;;;;5.88;3.20;;;20.10;99.90;;;;;;5009801;28;20040;-78
2022/10/12 10:13:27;;;;;;;6.03;3.10;;;20.30;99.90;;;;;;5010306;28;20022;-78
2022/10/12 10:16:08;;;;;;;3.55;3.10;;;20.60;99.90;;;;;;5009861;28;20575;-78
2022/10/12 10:18:36;;;;;;;7.28;3.30;;;20.50;99.90;;;;;;5010318;28;20029;-78
2022/10/12 10:21:06;;;;;;;4.47;3.47;;;20.60;99.90;;;;;;5025292;28;20030;-78
2022/10/12 10:23:49;;;;;;;4.22;3.00;;;20.60;99.90;;;;;;5009539;28;20081;-78
2022/10/12 10:26:18;;;;;;;5.22;3.60;;;20.70;99.90;;;;;;5008913;28;20026;-78
2022/10/12 10:28:48;;;;;;;5.22;3.00;;;20.80;99.90;;;;;;5009936;28;20073;-78
2022/10/12 10:31:20;;;;;;;6.83;3.93;;;20.80;99.90;;;;;;5010222;28;20025;-78
2022/10/12 10:34:16;;;;;;;6.72;4.15;;;20.60;99.90;;;;;;5010573;28;20296;-78
2022/10/12 10:36:51;;;;;;;5.20;3.50;;;20.50;99.90;;;;;;5001571;28;20084;-78
2022/10/12 10:39:48;;;;;;;6.70;3.75;;;20.90;99.90;;;;;;5023887;28;20045;-78
2022/10/12 10:42:30;;;;;;;4.13;3.22;;;21.30;99.90;;;;;;5009349;28;20042;-78
2022/10/12 10:45:02;;;;;;;5.45;3.75;;;21.10;99.90;;;;;;5009493;28;20029;-78
2022/10/12 10:47:31;;;;;;;6.20;4.13;;;20.60;99.90;;;;;;5010531;28;20076;-78
2022/10/12 10:49:59;;;;;;;6.32;4.05;;;20.20;99.90;;;;;;5010276;28;20026;-78
2022/10/12 10:52:29;;;;;;;5.47;3.70;;;20.20;99.90;;;;;;5015410;28;20430;-78
2022/10/12 10:55:08;;;;;;;4.30;3.53;;;20.30;99.90;;;;;;5024039;28;20029;-78
2022/10/12 10:57:35;;;;;;;4.22;2.78;;;20.30;99.90;;;;;;5008639;28;20029;-78
2022/10/12 11:00:10;;;;;;;5.97;3.60;;;20.20;99.90;;;;;;5010154;28;20045;-78
2022/10/12 11:02:57;;;;;;;7.15;4.00;;;20.50;99.90;;;;;;5001216;28;20053;-78
2022/10/12 11:05:29;;;;;;;6.60;3.88;;;20.80;99.90;;;;;;5007154;28;20026;-78
2022/10/12 11:07:57;;;;;;;5.45;3.40;;;21.20;99.90;;;;;;5010136;28;20029;-78
2022/10/12 11:10:32;;;;;;;4.70;3.47;;;21.10;99.90;;;;;;5025218;28;20116;-78
2022/10/12 11:13:12;;;;;;;8.13;3.65;;;21.30;99.90;;;;;;5025424;28;20041;-78
2022/10/12 11:15:47;;;;;;;5.57;3.78;;;21.40;99.90;;;;;;5010369;28;20030;-78
2022/10/12 11:18:37;;;;;;;7.13;4.10;;;21.50;99.90;;;;;;5005755;28;20109;-78
2022/10/12 11:21:17;;;;;;;7.78;4.25;;;21.00;99.90;;;;;;5005707;28;20057;-78
2022/10/12 11:23:52;;;;;;;4.03;3.60;;;21.30;99.90;;;;;;5009596;28;20148;-78
2022/10/12 11:26:47;;;;;;;7.80;4.03;;;21.80;99.90;;;;;;5008435;28;20128;-78
2022/10/12 11:29:16;;;;;;;7.05;4.32;;;21.80;99.90;;;;;;5015723;28;20132;-78
2022/10/12 11:31:59;;;;;;;6.07;3.95;;;21.70;99.90;;;;;;5013568;28;20075;-78
2022/10/12 11:34:27;;;;;;;8.55;4.55;;;21.90;99.90;;;;;;5013532;28;20514;-78
2022/10/12 11:36:54;;;;;;;8.50;4.57;;;21.90;99.90;;;;;;5012530;28;20109;-78
2022/10/12 11:39:37;;;;;;;8.70;4.60;;;21.80;99.90;;;;;;5012260;28;20022;-78
2022/10/12 11:42:06;;;;;;;4.75;4.30;;;21.80;99.90;;;;;;5009125;28;20037;-78
2022/10/12 11:44:42;;;;;;;6.97;4.00;;;21.80;99.90;;;;;;5013688;28;20075;-78
2022/10/12 11:47:35;;;;;;;6.95;4.10;;;22.20;99.90;;;;;;5013738;28;20083;-78
2022/10/12 11:50:27;;;;;;;4.97;4.32;;;22.50;99.90;;;;;;5014987;28;20045;-78
2022/10/12 11:52:55;;;;;;;8.10;3.50;;;22.30;99.90;;;;;;5012998;28;20096;-78
2022/10/12 11:55:35;;;;;;;5.45;3.38;;;22.00;99.90;;;;;;5013117;28;20022;-78
2022/10/12 11:58:11;;;;;;;5.97;3.63;;;21.80;99.90;;;;;;5028571;28;20538;-78
2022/10/12 12:00:45;;;;;;;5.28;3.30;;;21.70;99.90;;;;;;5009327;28;20288;-78
2022/10/12 12:03:42;;;;;;;7.35;3.60;;;21.80;99.90;;;;;;5009592;28;20064;-78
2022/10/12 12:06:30;;;;;;;9.00;3.70;;;22.20;99.90;;;;;;5013026;28;20037;-78
2022/10/12 12:08:57;;;;;;;6.35;3.22;;;22.00;99.90;;;;;;5028481;28;20072;-78
2022/10/12 12:11:26;;;;;;;5.38;3.65;;;22.00;99.90;;;;;;4999908;28;20034;-79
2022/10/12 12:14:24;;;;;;;11.98;3.60;;;22.50;99.90;;;;;;5013428;28;20018;-78
2022/10/12 12:17:10;;;;;;;5.82;3.33;;;22.30;99.90;;;;;;5010239;28;20045;-79
2022/10/12 12:19:37;;;;;;;8.95;3.47;;;22.30;99.90;;;;;;5008172;28;20026;-79
2022/10/12 12:22:27;;;;;;;5.95;3.88;;;22.70;99.90;;;;;;5002847;28;20060;-79
2022/10/12 12:25:09;;;;;;;4.38;2.83;;;22.70;99.90;;;;;;5002821;28;20038;-80
2022/10/12 12:27:51;;;;;;;5.18;3.20;;;22.50;99.90;;;;;;4989854;28;20132;-79
2022/10/12 12:30:17;;;;;;;7.30;2.63;;;22.70;99.90;;;;;;5001501;28;20045;-80
2022/10/12 12:32:49;;;;;;;6.70;3.45;;;22.40;99.90;;;;;;5008151;28;20431;-79
2022/10/12 12:35:25;;;;;;;2.58;2.33;;;22.30;99.90;;;;;;5008734;28;20107;-79
2022/10/12 12:38:17;;;;;;;5.10;3.20;;;22.60;99.90;;;;;;5008593;28;20030;-80
2022/10/12 12:40:55;;;;;;;5.00;2.75;;;23.00;99.90;;;;;;5004168;28;20036;-79
2022/10/12 12:43:30;;;;;;;4.30;2.90;;;22.70;99.90;;;;;;4989749;28;20023;-79
2022/10/12 12:46:01;;;;;;;4.47;2.60;;;22.40;99.90;;;;;;5005521;28;20096;-79
2022/10/12 12:48:42;;;;;;;3.95;2.63;;;22.30;99.90;;;;;;5008446;28;20124;-80
2022/10/12 12:51:20;;;;;;;2.88;2.55;;;22.60;99.90;;;;;;5006380;28;20065;-79
2022/10/12 12:53:46;;;;;;;4.57;2.42;;;22.50;99.90;;;;;;4998292;28;20037;-78
2022/10/12 12:56:17;;;;;;;3.03;2.55;;;22.30;99.90;;;;;;5011011;28;20034;-79
2022/10/12 12:59:13;;;;;;;6.65;3.00;;;22.10;99.90;;;;;;5011762;28;20084;-79
2022/10/12 13:01:54;;;;;;;5.22;3.42;;;22.10;99.90;;;;;;5022049;28;20630;-79
2022/10/12 13:04:50;;;;;;;3.88;2.33;;;22.10;99.90;;;;;;5025922;28;20903;-79